createdAt,value
2023-05-06T00:00:47.540Z,14.30
2023-05-06T00:04:09.502Z,14.30
2023-05-06T00:07:31.545Z,14.30
2023-05-06T00:10:53.509Z,14.20
2023-05-06T00:14:15.713Z,14.20
2023-05-06T00:17:37.829Z,14.20
2023-05-06T00:21:00.001Z,14.10
2023-05-06T00:24:21.938Z,14.10
2023-05-06T00:27:43.893Z,14.10
2023-05-06T00:31:06.178Z,14.10
2023-05-06T00:34:28.170Z,14.00
2023-05-06T00:38:11.517Z,14.00
2023-05-06T00:41:34.136Z,13.90
2023-05-06T00:44:56.124Z,13.90
2023-05-06T00:48:18.612Z,13.80
2023-05-06T00:51:40.975Z,13.80
2023-05-06T00:55:03.219Z,13.70
2023-05-06T00:58:25.196Z,13.70
2023-05-06T01:01:47.263Z,13.80
2023-05-06T01:05:10.256Z,13.70
2023-05-06T01:08:42.798Z,13.70
2023-05-06T01:12:19.182Z,13.70
2023-05-06T01:15:46.357Z,13.70
2023-05-06T01:19:17.973Z,13.70
2023-05-06T01:22:40.344Z,13.60
2023-05-06T01:26:02.718Z,13.60
2023-05-06T01:29:24.777Z,13.70
2023-05-06T01:32:52.889Z,13.60
2023-05-06T01:36:57.706Z,13.50
2023-05-06T01:40:20.939Z,13.50
2023-05-06T01:43:45.025Z,13.40
2023-05-06T01:47:08.892Z,13.30
2023-05-06T01:50:31.386Z,13.20
2023-05-06T01:53:53.393Z,13.20
2023-05-06T01:57:15.393Z,13.20
2023-05-06T02:00:39.047Z,13.10
2023-05-06T02:04:01.675Z,13.10
2023-05-06T02:07:24.131Z,13.10
2023-05-06T02:10:46.123Z,13.00
2023-05-06T02:14:08.149Z,13.10
2023-05-06T02:17:31.375Z,13.10
2023-05-06T02:20:53.414Z,13.00
2023-05-06T02:24:16.795Z,13.00
2023-05-06T02:27:38.798Z,13.00
2023-05-06T02:31:00.834Z,13.00
2023-05-06T02:34:23.373Z,13.00
2023-05-06T02:37:45.322Z,12.90
2023-05-06T02:41:07.298Z,13.00
2023-05-06T02:44:29.552Z,12.90
2023-05-06T02:47:53.845Z,12.80
2023-05-06T02:51:16.193Z,12.80
2023-05-06T02:54:39.772Z,12.80
2023-05-06T02:58:01.868Z,12.80
2023-05-06T03:01:24.234Z,12.70
2023-05-06T03:04:46.205Z,12.70
2023-05-06T03:08:08.292Z,12.70
2023-05-06T03:11:32.064Z,12.70
2023-05-06T03:14:57.832Z,12.70
2023-05-06T03:18:20.313Z,12.70
2023-05-06T03:21:42.407Z,12.70
2023-05-06T03:25:05.254Z,12.60
2023-05-06T03:28:29.124Z,12.60
2023-05-06T03:31:51.455Z,12.60
2023-05-06T03:35:16.388Z,12.50
2023-05-06T03:38:41.644Z,12.50
2023-05-06T03:42:06.533Z,12.50
2023-05-06T03:45:30.790Z,12.50
2023-05-06T03:48:55.587Z,12.50
2023-05-06T03:52:18.688Z,12.50
2023-05-06T03:55:40.804Z,12.50
2023-05-06T03:59:04.067Z,12.50
2023-05-06T04:02:26.688Z,12.40
2023-05-06T04:05:50.622Z,12.40
2023-05-06T04:09:15.717Z,12.40
2023-05-06T04:12:37.858Z,12.40
2023-05-06T04:16:02.786Z,12.40
2023-05-06T04:19:30.513Z,12.40
2023-05-06T04:22:53.538Z,12.50
2023-05-06T04:26:16.272Z,12.60
2023-05-06T04:29:39.596Z,12.60
2023-05-06T04:33:04.011Z,12.70
2023-05-06T04:36:28.432Z,12.90
2023-05-06T04:40:05.730Z,13.00
2023-05-06T04:43:32.850Z,13.20
2023-05-06T04:47:03.085Z,13.40
2023-05-06T04:50:25.292Z,13.50
2023-05-06T04:53:48.400Z,13.60
2023-05-06T04:57:10.611Z,13.80
2023-05-06T05:00:32.999Z,13.90
2023-05-06T05:03:55.798Z,14.10
2023-05-06T05:07:17.822Z,14.20
2023-05-06T05:10:45.942Z,14.50
2023-05-06T05:14:12.562Z,14.80
2023-05-06T05:17:35.798Z,15.10
2023-05-06T05:20:58.035Z,15.40
2023-05-06T05:24:20.364Z,15.70
2023-05-06T05:27:43.124Z,16.00
2023-05-06T05:31:06.587Z,16.40
2023-05-06T05:34:31.299Z,17.00
2023-05-06T05:37:53.948Z,17.60
2023-05-06T05:41:17.531Z,18.10
2023-05-06T05:44:40.888Z,18.50
2023-05-06T05:48:03.319Z,18.90
2023-05-06T05:51:25.484Z,19.30
2023-05-06T05:54:49.909Z,20.00
2023-05-06T05:58:13.410Z,20.70
2023-05-06T06:01:36.661Z,21.50
2023-05-06T06:04:59.716Z,22.60
2023-05-06T06:08:21.793Z,23.80
2023-05-06T06:11:47.185Z,24.80
2023-05-06T06:15:09.961Z,25.60
2023-05-06T06:18:32.836Z,25.70
2023-05-06T06:21:54.988Z,26.50
2023-05-06T06:25:17.981Z,27.20
2023-05-06T06:28:40.105Z,26.70
2023-05-06T06:32:04.135Z,27.00
2023-05-06T06:35:26.927Z,26.90
2023-05-06T06:38:48.934Z,26.90
2023-05-06T06:42:11.053Z,26.50
2023-05-06T06:45:47.533Z,27.10
2023-05-06T06:49:09.591Z,27.70
2023-05-06T06:52:31.773Z,27.30
2023-05-06T06:55:53.865Z,26.90
2023-05-06T06:59:15.853Z,27.70
2023-05-06T07:02:37.931Z,27.60
2023-05-06T07:06:00.046Z,27.10
2023-05-06T07:09:22.060Z,27.00
2023-05-06T07:12:44.217Z,27.10
2023-05-06T07:16:06.421Z,27.00
2023-05-06T07:19:29.008Z,27.80
2023-05-06T07:22:51.140Z,27.70
2023-05-06T07:26:13.068Z,27.90
2023-05-06T07:29:38.186Z,27.60
2023-05-06T07:33:00.307Z,28.10
2023-05-06T07:36:22.319Z,29.00
2023-05-06T07:39:44.297Z,29.30
2023-05-06T07:43:07.116Z,29.30
2023-05-06T07:46:29.682Z,30.40
2023-05-06T07:49:51.659Z,29.60
2023-05-06T07:53:13.974Z,29.40
2023-05-06T07:56:36.222Z,30.20
2023-05-06T07:59:58.601Z,30.50
2023-05-06T08:03:20.757Z,31.20
2023-05-06T08:06:42.828Z,31.30
2023-05-06T08:10:05.388Z,31.40
2023-05-06T08:13:28.285Z,31.80
2023-05-06T08:16:51.151Z,31.20
2023-05-06T08:20:15.945Z,30.80
2023-05-06T08:23:37.998Z,30.90
2023-05-06T08:27:00.024Z,31.70
2023-05-06T08:30:22.208Z,32.40
2023-05-06T08:33:44.237Z,32.30
2023-05-06T08:37:06.196Z,32.00
2023-05-06T08:40:32.682Z,32.50
2023-05-06T08:43:57.220Z,31.70
2023-05-06T08:47:21.013Z,31.30
2023-05-06T08:50:43.650Z,31.10
2023-05-06T08:54:07.504Z,31.40
2023-05-06T08:57:31.240Z,31.70
2023-05-06T09:00:53.291Z,31.70
2023-05-06T09:04:17.006Z,31.50
2023-05-06T09:07:38.957Z,32.30
2023-05-06T09:11:00.957Z,32.50
2023-05-06T09:14:23.567Z,32.50
2023-05-06T09:17:45.522Z,32.80
2023-05-06T09:21:08.532Z,32.20
2023-05-06T09:24:31.049Z,32.60
2023-05-06T09:28:07.152Z,31.80
2023-05-06T09:31:29.987Z,31.60
2023-05-06T09:34:52.048Z,30.70
2023-05-06T09:38:14.129Z,30.80
2023-05-06T09:41:37.144Z,30.50
2023-05-06T09:45:02.510Z,30.00
2023-05-06T09:48:30.194Z,29.90
2023-05-06T09:51:52.968Z,30.30
2023-05-06T09:55:15.562Z,31.00
2023-05-06T09:58:38.299Z,31.30
2023-05-06T10:02:02.335Z,30.80
2023-05-06T10:05:26.358Z,30.20
2023-05-06T10:08:49.026Z,30.70
2023-05-06T10:12:11.174Z,30.60
2023-05-06T10:15:33.476Z,31.20
2023-05-06T10:18:56.477Z,31.30
2023-05-06T10:22:58.301Z,31.30
2023-05-06T10:26:21.842Z,31.60
2023-05-06T10:29:46.437Z,30.60
2023-05-06T10:33:10.433Z,29.70
2023-05-06T10:36:36.273Z,29.50
2023-05-06T10:39:58.759Z,29.00
2023-05-06T10:43:25.475Z,29.00
2023-05-06T10:46:59.125Z,29.30
2023-05-06T10:50:28.144Z,28.80
2023-05-06T10:54:07.141Z,29.00
2023-05-06T10:57:41.049Z,28.70
2023-05-06T11:01:03.264Z,29.10
2023-05-06T11:04:25.630Z,28.90
2023-05-06T11:07:53.301Z,29.60
2023-05-06T11:11:48.989Z,29.70
2023-05-06T11:15:21.296Z,28.90
2023-05-06T11:18:44.003Z,28.60
2023-05-06T11:22:07.171Z,28.40
2023-05-06T11:25:51.309Z,28.40
2023-05-06T11:29:16.638Z,27.80
2023-05-06T11:32:40.374Z,27.60
2023-05-06T11:36:06.696Z,27.90
2023-05-06T11:39:30.937Z,27.80
2023-05-06T11:42:53.071Z,27.90
2023-05-06T11:46:15.036Z,28.00
2023-05-06T11:49:43.686Z,27.80
2023-05-06T11:53:05.688Z,27.70
2023-05-06T11:56:27.655Z,27.50
2023-05-06T11:59:54.433Z,27.50
2023-05-06T12:03:16.499Z,28.20
2023-05-06T12:06:39.603Z,28.30
2023-05-06T12:10:04.283Z,28.50
2023-05-06T12:13:27.590Z,28.90
2023-05-06T12:16:50.179Z,28.90
2023-05-06T12:20:12.953Z,28.50
2023-05-06T12:23:35.123Z,28.50
2023-05-06T12:26:57.122Z,28.60
2023-05-06T12:30:32.576Z,27.70
2023-05-06T12:33:56.091Z,28.20
2023-05-06T12:37:29.825Z,28.70
2023-05-06T12:40:55.517Z,28.40
2023-05-06T12:44:51.264Z,28.50
2023-05-06T12:48:16.795Z,28.50
2023-05-06T12:51:38.790Z,28.50
2023-05-06T12:55:02.693Z,28.40
2023-05-06T12:58:24.673Z,28.00
2023-05-06T13:01:46.677Z,28.20
2023-05-06T13:05:08.900Z,28.80
2023-05-06T13:08:30.829Z,29.10
2023-05-06T13:11:53.158Z,29.20
2023-05-06T13:15:15.237Z,29.50
2023-05-06T13:18:37.554Z,29.40
2023-05-06T13:22:00.508Z,28.70
2023-05-06T13:25:23.271Z,29.20
2023-05-06T13:28:46.445Z,29.60
2023-05-06T13:32:15.741Z,29.60
2023-05-06T13:35:41.300Z,29.70
2023-05-06T13:39:04.225Z,29.80
2023-05-06T13:42:26.273Z,30.00
2023-05-06T13:45:48.217Z,30.90
2023-05-06T13:49:10.228Z,30.90
2023-05-06T13:52:32.312Z,30.70
2023-05-06T13:55:54.288Z,30.90
2023-05-06T13:59:16.358Z,31.50
2023-05-06T14:02:38.728Z,30.50
2023-05-06T14:06:01.349Z,30.30
2023-05-06T14:09:24.170Z,30.30
2023-05-06T14:12:46.598Z,30.60
2023-05-06T14:16:08.893Z,30.40
2023-05-06T14:19:30.944Z,31.30
2023-05-06T14:22:52.890Z,31.70
2023-05-06T14:26:15.517Z,32.20
2023-05-06T14:29:37.497Z,32.50
2023-05-06T14:32:59.579Z,32.60
2023-05-06T14:36:21.580Z,32.40
2023-05-06T14:39:43.577Z,32.10
2023-05-06T14:43:07.476Z,31.90
2023-05-06T14:46:29.811Z,32.10
2023-05-06T14:49:51.964Z,32.10
2023-05-06T14:53:13.985Z,31.80
2023-05-06T14:56:36.297Z,31.60
2023-05-06T14:59:58.713Z,31.00
2023-05-06T15:03:20.993Z,30.70
2023-05-06T15:06:42.916Z,30.40
2023-05-06T15:10:05.346Z,30.20
2023-05-06T15:13:27.314Z,30.00
2023-05-06T15:16:49.441Z,30.10
2023-05-06T15:20:14.108Z,29.60
2023-05-06T15:23:37.520Z,29.50
2023-05-06T15:26:59.752Z,28.30
2023-05-06T15:30:21.758Z,27.80
2023-05-06T15:33:43.986Z,28.30
2023-05-06T15:37:06.332Z,28.40
2023-05-06T15:40:28.325Z,28.70
2023-05-06T15:43:50.988Z,29.10
2023-05-06T15:47:12.890Z,29.50
2023-05-06T15:50:37.240Z,29.10
2023-05-06T15:53:59.540Z,28.50
2023-05-06T15:57:21.503Z,28.30
2023-05-06T16:00:43.481Z,27.70
2023-05-06T16:04:05.666Z,27.40
2023-05-06T16:07:27.845Z,27.50
2023-05-06T16:10:52.023Z,27.60
2023-05-06T16:14:13.992Z,27.50
2023-05-06T16:17:38.067Z,27.40
2023-05-06T16:21:00.137Z,27.20
2023-05-06T16:24:22.210Z,26.90
2023-05-06T16:27:44.230Z,26.70
2023-05-06T16:31:06.644Z,26.30
2023-05-06T16:34:28.677Z,26.20
2023-05-06T16:37:50.774Z,25.90
2023-05-06T16:41:12.720Z,25.80
2023-05-06T16:44:35.259Z,25.70
2023-05-06T16:47:57.332Z,25.70
2023-05-06T16:51:19.395Z,25.50
2023-05-06T16:54:41.592Z,25.60
2023-05-06T16:58:04.165Z,25.60
2023-05-06T17:01:26.973Z,25.50
2023-05-06T17:04:49.020Z,25.70
2023-05-06T17:08:10.993Z,25.50
2023-05-06T17:11:32.925Z,25.30
2023-05-06T17:14:54.896Z,25.30
2023-05-06T17:18:16.908Z,25.10
2023-05-06T17:21:38.903Z,24.90
2023-05-06T17:25:00.872Z,24.90
2023-05-06T17:28:23.029Z,24.90
2023-05-06T17:31:44.973Z,24.90
2023-05-06T17:35:07.626Z,24.80
2023-05-06T17:38:29.797Z,24.60
2023-05-06T17:41:51.815Z,24.50
2023-05-06T17:45:14.128Z,24.30
2023-05-06T17:48:36.102Z,24.10
2023-05-06T17:51:59.380Z,24.00
2023-05-06T17:55:23.805Z,23.80
2023-05-06T17:58:48.054Z,23.60
2023-05-06T18:02:13.926Z,23.50
2023-05-06T18:05:35.926Z,23.40
2023-05-06T18:08:57.914Z,23.30
2023-05-06T18:12:20.312Z,23.10
2023-05-06T18:15:42.599Z,23.00
2023-05-06T18:19:05.262Z,22.90
2023-05-06T18:22:27.217Z,22.70
2023-05-06T18:25:49.551Z,22.60
2023-05-06T18:29:11.654Z,22.40
2023-05-06T18:32:34.881Z,22.20
2023-05-06T18:35:57.254Z,22.10
2023-05-06T18:39:19.422Z,21.90
2023-05-06T18:42:41.382Z,21.80
2023-05-06T18:46:05.470Z,21.60
2023-05-06T18:49:28.595Z,21.60
2023-05-06T18:52:50.668Z,21.60
2023-05-06T18:56:14.012Z,21.50
2023-05-06T18:59:36.434Z,21.40
2023-05-06T19:02:58.795Z,21.40
2023-05-06T19:06:20.872Z,21.30
2023-05-06T19:09:43.244Z,21.20
2023-05-06T19:13:07.341Z,21.00
2023-05-06T19:16:29.452Z,20.90
2023-05-06T19:19:51.612Z,20.70
2023-05-06T19:23:13.629Z,20.70
2023-05-06T19:26:35.721Z,20.60
2023-05-06T19:29:57.677Z,20.50
2023-05-06T19:33:19.675Z,20.40
2023-05-06T19:36:41.628Z,20.30
2023-05-06T19:40:04.363Z,20.30
2023-05-06T19:43:26.696Z,20.20
2023-05-06T19:46:55.192Z,20.10
2023-05-06T19:50:17.929Z,20.00
2023-05-06T19:53:40.581Z,20.00
2023-05-06T19:57:03.354Z,19.90
2023-05-06T20:00:28.227Z,19.90
2023-05-06T20:03:50.692Z,19.90
2023-05-06T20:07:14.052Z,19.80
2023-05-06T20:10:37.087Z,19.70
2023-05-06T20:13:59.756Z,19.60
2023-05-06T20:17:23.364Z,19.50
2023-05-06T20:20:47.468Z,19.50
2023-05-06T20:24:09.748Z,19.50
2023-05-06T20:27:31.798Z,19.40
2023-05-06T20:30:55.531Z,19.30
2023-05-06T20:34:17.714Z,19.10
2023-05-06T20:37:41.257Z,19.10
2023-05-06T20:41:03.226Z,19.00
2023-05-06T20:44:25.295Z,19.10
2023-05-06T20:47:47.361Z,19.10
2023-05-06T20:51:09.392Z,19.10
2023-05-06T20:54:32.330Z,19.00
2023-05-06T20:57:54.321Z,19.00
2023-05-06T21:01:16.670Z,18.90
2023-05-06T21:04:39.012Z,18.90
2023-05-06T21:08:03.602Z,18.90
2023-05-06T21:11:28.780Z,18.90
2023-05-06T21:14:51.568Z,19.00
2023-05-06T21:18:14.912Z,19.00
2023-05-06T21:21:37.219Z,19.00
2023-05-06T21:24:59.479Z,18.90
2023-05-06T21:28:21.951Z,18.90
2023-05-06T21:31:44.723Z,18.80
2023-05-06T21:35:07.631Z,18.70
2023-05-06T21:38:29.852Z,18.60
2023-05-06T21:41:51.913Z,18.60
2023-05-06T21:45:16.326Z,18.50
2023-05-06T21:48:38.930Z,18.30
2023-05-06T21:52:01.119Z,18.20
2023-05-06T21:55:23.228Z,18.10
2023-05-06T21:58:45.344Z,18.10
2023-05-06T22:02:07.691Z,18.10
2023-05-06T22:05:29.866Z,18.10
2023-05-06T22:08:52.117Z,18.00
2023-05-06T22:12:15.492Z,18.00
2023-05-06T22:15:37.465Z,17.90
2023-05-06T22:19:00.633Z,17.80
2023-05-06T22:22:22.706Z,17.80
2023-05-06T22:25:44.907Z,17.80
2023-05-06T22:29:07.364Z,17.80
2023-05-06T22:32:29.454Z,17.70
2023-05-06T22:35:51.430Z,17.60
2023-05-06T22:39:13.416Z,17.50
2023-05-06T22:42:35.743Z,17.40
2023-05-06T22:45:57.720Z,17.30
2023-05-06T22:49:19.940Z,17.20
2023-05-06T22:52:41.997Z,17.10
2023-05-06T22:56:04.081Z,17.10
2023-05-06T22:59:26.126Z,17.00
2023-05-06T23:02:48.223Z,16.90
2023-05-06T23:06:11.388Z,16.90
2023-05-06T23:09:33.304Z,16.90
2023-05-06T23:12:55.349Z,16.80
2023-05-06T23:16:17.456Z,16.70
2023-05-06T23:19:39.502Z,16.70
2023-05-06T23:23:01.556Z,16.60
2023-05-06T23:26:24.041Z,16.60
2023-05-06T23:29:46.070Z,16.60
2023-05-06T23:33:08.954Z,16.50
2023-05-06T23:36:31.186Z,16.50
2023-05-06T23:39:53.288Z,16.40
2023-05-06T23:43:15.316Z,16.40
2023-05-06T23:46:37.334Z,16.30
2023-05-06T23:50:00.713Z,16.20
2023-05-06T23:53:22.768Z,16.20
2023-05-06T23:56:44.873Z,16.20
